Time;durP1;ratioP1;P1;durP2;ratioP2;P2;SDS_P1;SDS_P2;PMS_P1;PMS_P2;Temp;Humidity;BMP_temperature;BMP_pressure;BME280_temperature;BME280_humidity;BME280_pressure;Samples;Min_cycle;Max_cycle;Signal;HPM_P1;HPM_P2
2023/05/01 00:01:51;;;;;;;10.13;2.53;;;3.30;99.90;;;;;;4427636;28;654615;-68
2023/05/01 00:04:38;;;;;;;9.63;2.70;;;3.20;99.90;;;;;;4441834;28;655212;-68
2023/05/01 00:07:28;;;;;;;6.43;2.63;;;3.10;99.90;;;;;;4418218;28;654549;-68
2023/05/01 00:10:18;;;;;;;6.72;2.92;;;3.10;99.90;;;;;;4424048;28;655595;-69
2023/05/01 00:13:05;;;;;;;9.60;2.75;;;3.00;99.90;;;;;;4428405;28;654966;-69
2023/05/01 00:15:52;;;;;;;8.07;2.63;;;3.00;99.90;;;;;;4448923;28;654512;-68
2023/05/01 00:18:40;;;;;;;14.00;3.10;;;3.00;99.90;;;;;;4445296;28;654160;-68
2023/05/01 00:21:28;;;;;;;5.30;2.17;;;2.90;99.90;;;;;;4447844;28;655934;-67
2023/05/01 00:24:15;;;;;;;10.30;2.57;;;2.90;99.90;;;;;;4428649;28;654723;-68
2023/05/01 00:27:04;;;;;;;7.70;2.60;;;2.90;99.90;;;;;;4442180;28;657148;-68
2023/05/01 00:29:51;;;;;;;7.37;2.20;;;2.80;1.00;;;;;;4425606;28;654743;-68
2023/05/01 00:32:38;;;;;;;7.23;2.30;;;2.80;1.00;;;;;;4446185;28;653234;-67
2023/05/01 00:35:26;;;;;;;6.23;2.53;;;2.70;1.00;;;;;;4420833;28;653615;-68
2023/05/01 00:38:13;;;;;;;6.90;2.40;;;2.70;1.00;;;;;;4450060;28;653426;-68
2023/05/01 00:41:00;;;;;;;8.53;2.80;;;2.70;1.00;;;;;;4418642;28;653365;-69
2023/05/01 00:43:49;;;;;;;6.10;2.53;;;2.70;1.00;;;;;;4444090;28;653883;-68
2023/05/01 00:46:37;;;;;;;11.73;2.70;;;2.70;1.00;;;;;;4426687;28;653874;-68
2023/05/01 00:49:24;;;;;;;5.10;2.20;;;2.70;1.00;;;;;;4440790;28;655846;-67
2023/05/01 00:52:11;;;;;;;8.97;2.60;;;2.60;1.00;;;;;;4423456;28;653763;-67
2023/05/01 00:54:59;;;;;;;6.97;2.20;;;2.60;1.00;;;;;;4443897;28;653958;-68
2023/05/01 00:57:46;;;;;;;5.63;2.23;;;2.60;1.00;;;;;;4417664;28;654034;-68
2023/05/01 01:00:34;;;;;;;9.10;2.70;;;2.60;1.00;;;;;;4444342;28;654382;-67
2023/05/01 01:03:22;;;;;;;7.07;2.50;;;2.50;1.00;;;;;;4424842;28;654101;-68
2023/05/01 01:06:10;;;;;;;7.93;2.80;;;2.50;1.00;;;;;;4444510;28;654680;-67
2023/05/01 01:09:06;;;;;;;5.03;2.27;;;2.50;1.00;;;;;;4420471;28;654776;-68
2023/05/01 01:11:58;;;;;;;6.90;2.40;;;2.50;1.00;;;;;;4418800;28;654209;-68
2023/05/01 01:14:48;;;;;;;8.83;2.50;;;2.40;1.00;;;;;;4407336;28;653517;-68
2023/05/01 01:17:41;;;;;;;9.47;2.77;;;2.40;99.90;;;;;;4424014;28;653620;-69
2023/05/01 01:20:31;;;;;;;5.13;2.43;;;2.40;99.90;;;;;;4414766;28;655737;-67
2023/05/01 01:23:43;;;;;;;5.93;2.50;;;2.30;99.90;;;;;;4426207;28;655115;-69
2023/05/01 01:26:52;;;;;;;6.17;2.30;;;2.30;99.90;;;;;;4384994;28;654803;-69
2023/05/01 01:29:56;;;;;;;7.27;2.73;;;2.20;99.90;;;;;;4408238;28;654667;-67
2023/05/01 01:33:11;;;;;;;5.80;2.40;;;2.10;99.90;;;;;;4414287;28;654832;-68
2023/05/01 01:36:02;;;;;;;7.33;2.50;;;2.10;99.90;;;;;;4415785;28;654863;-68
2023/05/01 01:38:54;;;;;;;9.83;2.73;;;2.10;99.90;;;;;;4417440;28;654400;-69
2023/05/01 01:41:42;;;;;;;4.27;2.00;;;2.10;99.90;;;;;;4424479;28;654676;-68
2023/05/01 01:44:33;;;;;;;5.23;2.20;;;2.00;99.90;;;;;;4440690;28;654310;-67
2023/05/01 01:47:20;;;;;;;9.90;2.40;;;2.00;99.90;;;;;;4401947;28;655429;-68
2023/05/01 01:50:08;;;;;;;8.93;2.50;;;1.90;99.90;;;;;;4435439;28;655810;-68
2023/05/01 01:52:57;;;;;;;4.70;2.10;;;1.90;99.90;;;;;;4418140;28;654383;-68
2023/05/01 01:55:44;;;;;;;7.90;2.40;;;1.90;99.90;;;;;;4439205;28;654037;-67
2023/05/01 01:58:32;;;;;;;6.90;2.50;;;1.90;99.90;;;;;;4421408;28;654077;-68
2023/05/01 02:01:19;;;;;;;5.00;2.40;;;1.90;99.90;;;;;;4443422;28;654885;-68
2023/05/01 02:04:06;;;;;;;5.87;2.20;;;1.80;99.90;;;;;;4421617;28;654584;-68
2023/05/01 02:06:55;;;;;;;11.70;2.70;;;1.80;99.90;;;;;;4433869;28;654939;-68
2023/05/01 02:09:44;;;;;;;5.85;3.05;;;1.80;99.90;;;;;;4423472;28;656708;-68
2023/05/01 02:12:31;;;;;;;7.47;3.17;;;1.70;99.90;;;;;;4427569;28;654557;-67
2023/05/01 02:15:18;;;;;;;9.80;3.50;;;1.70;99.90;;;;;;4447058;28;655329;-68
2023/05/01 02:18:06;;;;;;;7.10;3.47;;;1.70;99.90;;;;;;4423627;28;654564;-68
2023/05/01 02:20:53;;;;;;;10.07;3.75;;;1.70;99.90;;;;;;4447060;28;654845;-69
2023/05/01 02:23:40;;;;;;;9.60;3.97;;;1.60;99.90;;;;;;4417373;28;655361;-70
2023/05/01 02:26:29;;;;;;;10.60;3.60;;;1.60;99.90;;;;;;4449518;28;655583;-69
2023/05/01 02:29:16;;;;;;;8.20;3.53;;;1.50;99.90;;;;;;4427241;28;655096;-69
2023/05/01 02:32:03;;;;;;;7.83;3.97;;;1.60;99.90;;;;;;4446134;28;655916;-69
2023/05/01 02:34:50;;;;;;;8.23;3.70;;;1.50;99.90;;;;;;4424177;28;654364;-69
2023/05/01 02:37:38;;;;;;;11.57;3.90;;;1.50;99.90;;;;;;4443584;28;655684;-70
2023/05/01 02:40:25;;;;;;;13.02;3.97;;;1.60;99.90;;;;;;4422208;28;656054;-70
2023/05/01 02:43:15;;;;;;;9.50;3.70;;;1.50;99.90;;;;;;4445946;28;655788;-69
2023/05/01 02:46:03;;;;;;;13.33;4.20;;;1.60;99.90;;;;;;4426969;28;655106;-69
2023/05/01 02:48:50;;;;;;;9.32;4.45;;;1.50;99.90;;;;;;4425237;28;655430;-70
2023/05/01 02:51:37;;;;;;;11.57;4.40;;;1.60;99.90;;;;;;4450190;28;656006;-69
2023/05/01 02:54:25;;;;;;;8.20;3.70;;;1.60;99.90;;;;;;4350336;28;655418;-69
2023/05/01 02:57:13;;;;;;;10.33;3.70;;;1.60;99.90;;;;;;4265038;28;655013;-70
2023/05/01 03:00:02;;;;;;;11.07;4.10;;;1.60;99.90;;;;;;4271839;28;655437;-70
2023/05/01 03:02:49;;;;;;;12.53;4.67;;;1.60;99.90;;;;;;4411375;28;655671;-70
2023/05/01 03:05:37;;;;;;;12.95;4.40;;;1.50;99.90;;;;;;4424978;28;656466;-69
2023/05/01 03:08:24;;;;;;;12.30;4.87;;;1.60;99.90;;;;;;4442778;28;655111;-69
2023/05/01 03:11:11;;;;;;;9.07;4.27;;;1.50;99.90;;;;;;4423519;28;655436;-69
2023/05/01 03:13:58;;;;;;;8.97;4.50;;;1.50;99.90;;;;;;4436108;28;655650;-69
2023/05/01 03:16:47;;;;;;;10.87;5.57;;;1.50;99.90;;;;;;4422886;28;654516;-69
2023/05/01 03:19:35;;;;;;;11.80;5.00;;;1.50;99.90;;;;;;4436626;28;655227;-70
2023/05/01 03:22:23;;;;;;;12.55;5.60;;;1.50;99.90;;;;;;4416445;28;655993;-69
2023/05/01 03:25:10;;;;;;;13.17;5.23;;;1.50;99.90;;;;;;4435036;28;656459;-69
2023/05/01 03:27:57;;;;;;;9.90;4.20;;;1.50;99.90;;;;;;4451060;28;655716;-69
2023/05/01 03:30:45;;;;;;;14.40;4.70;;;1.60;99.90;;;;;;4437074;28;654277;-70
2023/05/01 03:33:34;;;;;;;19.30;4.63;;;1.50;99.90;;;;;;4448127;28;655726;-70
2023/05/01 03:36:22;;;;;;;9.13;4.23;;;1.60;99.90;;;;;;4419857;28;655681;-69
2023/05/01 03:39:09;;;;;;;11.02;4.15;;;1.70;99.90;;;;;;4446369;28;654890;-69
2023/05/01 03:41:57;;;;;;;11.07;4.17;;;1.70;99.90;;;;;;4419101;28;655910;-69
2023/05/01 03:44:45;;;;;;;13.40;4.40;;;1.80;99.90;;;;;;4440322;28;655508;-70
2023/05/01 03:47:33;;;;;;;12.43;4.33;;;1.90;99.90;;;;;;4437406;28;656353;-69
2023/05/01 03:50:22;;;;;;;11.33;4.10;;;1.90;99.90;;;;;;4436918;28;655497;-69
2023/05/01 03:53:09;;;;;;;13.13;4.67;;;2.00;99.90;;;;;;4442184;28;656587;-69
2023/05/01 03:55:56;;;;;;;14.10;4.40;;;2.20;99.90;;;;;;4421850;28;655547;-69
2023/05/01 03:58:43;;;;;;;12.93;4.57;;;2.30;99.90;;;;;;4444848;28;656280;-69
2023/05/01 04:01:32;;;;;;;16.70;4.60;;;2.50;99.90;;;;;;4422280;28;655479;-70
2023/05/01 04:04:19;;;;;;;14.40;4.10;;;2.70;99.90;;;;;;4436672;28;655969;-69
2023/05/01 04:07:08;;;;;;;9.27;3.60;;;2.80;99.90;;;;;;4420877;28;657223;-70
2023/05/01 04:09:55;;;;;;;8.85;3.35;;;3.00;99.90;;;;;;4427740;28;654395;-70
2023/05/01 04:12:42;;;;;;;9.83;3.73;;;3.00;99.90;;;;;;4448953;28;655676;-69
2023/05/01 04:15:30;;;;;;;9.07;3.63;;;3.00;99.90;;;;;;4442461;28;654735;-70
2023/05/01 04:18:17;;;;;;;13.63;4.10;;;3.10;99.90;;;;;;4445868;28;656108;-70
2023/05/01 04:21:05;;;;;;;13.03;4.87;;;3.10;99.90;;;;;;4433911;28;656546;-69
2023/05/01 04:23:53;;;;;;;16.50;5.57;;;3.20;99.90;;;;;;4417024;28;656749;-69
2023/05/01 04:26:41;;;;;;;12.60;5.07;;;3.30;99.90;;;;;;4421922;28;655934;-69
2023/05/01 04:29:29;;;;;;;11.67;5.20;;;3.50;99.90;;;;;;4440517;28;655329;-69
2023/05/01 04:32:16;;;;;;;11.03;4.10;;;3.60;99.90;;;;;;4423933;28;655366;-70
2023/05/01 04:35:04;;;;;;;18.07;5.33;;;3.80;99.90;;;;;;4429601;28;656267;-69
2023/05/01 04:37:51;;;;;;;10.87;4.40;;;4.00;99.90;;;;;;4416702;28;655682;-70
2023/05/01 04:40:40;;;;;;;13.40;3.97;;;4.20;99.90;;;;;;4440185;28;656581;-69
2023/05/01 04:43:27;;;;;;;11.50;4.23;;;4.40;99.90;;;;;;4419405;28;656572;-69
2023/05/01 04:46:14;;;;;;;10.07;3.70;;;4.50;99.90;;;;;;4448182;28;656636;-69
2023/05/01 04:49:01;;;;;;;10.93;3.53;;;4.80;99.90;;;;;;4420571;28;655351;-69
2023/05/01 04:51:49;;;;;;;8.83;3.70;;;5.00;99.90;;;;;;4436652;28;655614;-70
2023/05/01 04:54:36;;;;;;;7.73;3.30;;;5.10;99.90;;;;;;4419126;28;654525;-70
2023/05/01 04:57:25;;;;;;;8.43;3.33;;;5.30;99.90;;;;;;4442109;28;654911;-69
2023/05/01 05:00:13;;;;;;;10.90;3.72;;;5.60;99.90;;;;;;4427346;28;654166;-69
2023/05/01 05:03:00;;;;;;;9.82;4.07;;;5.80;99.90;;;;;;4423153;28;655882;-70
2023/05/01 05:05:47;;;;;;;10.77;4.50;;;6.00;99.90;;;;;;4444741;28;655258;-69
2023/05/01 05:08:35;;;;;;;12.17;4.40;;;6.20;99.90;;;;;;4442657;28;655342;-69
2023/05/01 05:11:22;;;;;;;9.40;3.67;;;6.50;99.90;;;;;;4435964;28;656558;-68
2023/05/01 05:14:11;;;;;;;10.83;3.83;;;6.70;99.90;;;;;;4438927;28;655650;-69
2023/05/01 05:16:59;;;;;;;11.70;3.50;;;6.80;99.90;;;;;;4439306;28;655842;-69
2023/05/01 05:19:46;;;;;;;9.57;3.83;;;7.00;99.90;;;;;;4421101;28;656127;-69
2023/05/01 05:22:36;;;;;;;7.90;3.30;;;7.20;99.90;;;;;;4443003;28;655522;-70
2023/05/01 05:25:23;;;;;;;6.87;3.17;;;7.40;99.90;;;;;;4417034;28;654479;-68
2023/05/01 05:28:11;;;;;;;9.87;3.70;;;7.60;99.90;;;;;;4417075;28;655146;-69
2023/05/01 05:30:59;;;;;;;7.43;3.33;;;7.80;99.90;;;;;;4445543;28;654959;-68
2023/05/01 05:33:46;;;;;;;7.13;3.13;;;7.90;99.90;;;;;;4412884;28;654929;-69
2023/05/01 05:36:34;;;;;;;7.77;3.20;;;8.10;99.90;;;;;;4441552;28;655002;-69
2023/05/01 05:39:22;;;;;;;8.43;3.17;;;8.20;99.90;;;;;;4424518;28;654368;-68
2023/05/01 05:42:09;;;;;;;8.82;3.33;;;8.40;99.90;;;;;;4439284;28;654293;-68
2023/05/01 05:44:56;;;;;;;8.30;3.20;;;8.50;99.90;;;;;;4426411;28;655253;-68
2023/05/01 05:47:45;;;;;;;8.00;3.23;;;8.70;99.90;;;;;;4445825;28;655209;-68
2023/05/01 05:50:32;;;;;;;18.30;3.03;;;8.80;99.90;;;;;;4415523;28;655296;-69
2023/05/01 05:53:19;;;;;;;9.30;3.40;;;9.00;99.90;;;;;;4440397;28;655503;-67
2023/05/01 05:56:07;;;;;;;7.90;3.00;;;9.10;99.90;;;;;;4424690;28;654404;-70
2023/05/01 05:58:55;;;;;;;9.67;3.50;;;9.20;99.90;;;;;;4430143;28;654452;-68
2023/05/01 06:01:42;;;;;;;9.43;3.50;;;9.30;98.80;;;;;;4421827;28;655473;-68
2023/05/01 06:04:31;;;;;;;11.60;3.93;;;9.40;98.20;;;;;;4439519;28;654923;-68
2023/05/01 06:07:18;;;;;;;7.13;3.37;;;9.50;98.60;;;;;;4419383;28;656527;-68
2023/05/01 06:10:06;;;;;;;7.60;3.20;;;9.60;98.50;;;;;;4421470;28;654629;-71
2023/05/01 06:12:53;;;;;;;8.40;3.08;;;9.70;98.30;;;;;;4442180;28;656107;-71
2023/05/01 06:15:40;;;;;;;10.27;3.77;;;9.70;96.40;;;;;;4426140;28;654615;-71
2023/05/01 06:18:29;;;;;;;9.30;3.47;;;9.90;98.80;;;;;;4434134;28;657445;-72
2023/05/01 06:21:17;;;;;;;8.80;3.47;;;10.00;96.40;;;;;;4421038;28;654535;-71
2023/05/01 06:24:05;;;;;;;12.20;3.50;;;10.10;97.60;;;;;;4443569;28;655117;-71
2023/05/01 06:26:52;;;;;;;9.57;3.27;;;10.20;96.40;;;;;;4417202;28;658087;-71
2023/05/01 06:29:39;;;;;;;7.32;3.38;;;10.20;95.90;;;;;;4442235;28;655016;-72
2023/05/01 06:32:27;;;;;;;10.43;3.60;;;10.30;93.60;;;;;;4420076;28;655753;-71
2023/05/01 06:35:14;;;;;;;8.07;3.40;;;10.40;95.40;;;;;;4438420;28;656463;-72
2023/05/01 06:38:02;;;;;;;11.90;3.63;;;10.50;93.80;;;;;;4422365;28;655482;-71
2023/05/01 06:40:50;;;;;;;7.37;2.80;;;10.50;91.40;;;;;;4436846;28;656616;-71
2023/05/01 06:43:37;;;;;;;10.83;3.40;;;10.50;92.20;;;;;;4440498;28;656557;-72
2023/05/01 06:46:24;;;;;;;11.13;3.57;;;10.70;92.30;;;;;;4431899;28;656586;-72
2023/05/01 06:49:12;;;;;;;11.10;3.60;;;10.80;91.60;;;;;;4411355;28;656437;-72
2023/05/01 06:51:59;;;;;;;9.20;3.20;;;10.90;93.10;;;;;;4434737;28;656432;-71
2023/05/01 06:54:47;;;;;;;9.80;3.23;;;11.10;91.70;;;;;;4420484;28;656121;-68
2023/05/01 06:57:35;;;;;;;11.53;3.43;;;11.10;93.30;;;;;;4441677;28;655881;-69
2023/05/01 07:00:22;;;;;;;7.50;2.93;;;11.30;91.40;;;;;;4432157;28;657266;-69
2023/05/01 07:03:10;;;;;;;8.93;2.80;;;11.30;90.30;;;;;;4436398;28;655898;-69
2023/05/01 07:05:57;;;;;;;7.67;3.10;;;11.40;90.40;;;;;;4446230;28;655708;-70
2023/05/01 07:08:45;;;;;;;10.93;2.90;;;11.50;90.80;;;;;;4437357;28;655464;-69
2023/05/01 07:11:34;;;;;;;8.53;3.20;;;11.60;88.80;;;;;;4438606;28;658401;-69
2023/05/01 07:14:21;;;;;;;5.30;2.87;;;11.70;85.90;;;;;;4419701;28;655394;-69
2023/05/01 07:17:09;;;;;;;11.80;3.37;;;11.90;87.60;;;;;;4442610;28;656122;-69
2023/05/01 07:19:56;;;;;;;9.40;3.10;;;11.90;82.80;;;;;;4414645;28;656229;-70
2023/05/01 07:22:43;;;;;;;7.00;2.67;;;12.10;85.40;;;;;;4436678;28;656486;-69
2023/05/01 07:25:31;;;;;;;9.50;3.10;;;12.10;79.70;;;;;;4419561;28;656236;-69
2023/05/01 07:28:20;;;;;;;6.40;3.07;;;12.20;81.30;;;;;;4441678;28;656252;-69
2023/05/01 07:31:09;;;;;;;5.83;2.80;;;12.40;81.10;;;;;;4419934;28;656504;-69
2023/05/01 07:33:56;;;;;;;6.50;2.60;;;12.40;76.50;;;;;;4417661;28;655339;-70
2023/05/01 07:36:43;;;;;;;9.43;2.80;;;12.50;70.00;;;;;;4438344;28;656911;-70
2023/05/01 07:39:30;;;;;;;6.60;2.43;;;12.70;71.20;;;;;;4419825;28;655940;-70
2023/05/01 07:42:18;;;;;;;5.10;2.17;;;12.90;71.00;;;;;;4444081;28;657244;-70
2023/05/01 07:45:08;;;;;;;8.37;2.13;;;12.90;65.90;;;;;;4431447;28;655923;-69
2023/05/01 07:47:55;;;;;;;7.27;2.53;;;13.10;58.70;;;;;;4429074;28;655955;-69
2023/05/01 07:50:43;;;;;;;6.67;2.60;;;13.20;61.40;;;;;;4439504;28;657275;-70
2023/05/01 07:53:30;;;;;;;7.83;2.50;;;13.20;57.60;;;;;;4424642;28;655588;-70
2023/05/01 07:56:18;;;;;;;12.10;3.00;;;13.20;63.10;;;;;;4438944;28;656824;-70
2023/05/01 07:59:05;;;;;;;7.70;3.03;;;13.20;60.60;;;;;;4432736;28;657097;-69
2023/05/01 08:01:54;;;;;;;8.47;3.33;;;13.40;64.00;;;;;;4448522;28;655945;-69
2023/05/01 08:04:41;;;;;;;6.00;2.93;;;13.70;64.50;;;;;;4422109;28;655354;-69
2023/05/01 08:07:28;;;;;;;6.20;2.80;;;13.50;63.70;;;;;;4444443;28;656983;-69
2023/05/01 08:10:16;;;;;;;8.90;2.80;;;13.60;65.60;;;;;;4421968;28;656578;-69
2023/05/01 08:13:03;;;;;;;7.63;3.20;;;13.80;63.70;;;;;;4443352;28;655624;-69
2023/05/01 08:15:51;;;;;;;8.20;2.77;;;13.90;59.70;;;;;;4420417;28;655918;-69
2023/05/01 08:18:39;;;;;;;4.10;2.50;;;14.10;61.50;;;;;;4439955;28;657127;-70
2023/05/01 08:21:27;;;;;;;7.27;2.90;;;14.00;56.90;;;;;;4423683;28;657310;-70
2023/05/01 08:24:14;;;;;;;6.90;2.90;;;14.20;59.80;;;;;;4439286;28;657765;-70
2023/05/01 08:27:01;;;;;;;11.17;2.90;;;14.40;57.40;;;;;;4421465;28;656819;-70
2023/05/01 08:29:48;;;;;;;7.40;3.00;;;14.50;58.10;;;;;;4437153;28;660019;-69
2023/05/01 08:32:35;;;;;;;7.70;2.90;;;14.80;61.90;;;;;;4417240;28;656681;-70
2023/05/01 08:35:24;;;;;;;8.50;3.07;;;14.90;59.50;;;;;;4443386;28;657781;-69
2023/05/01 08:38:12;;;;;;;6.17;2.93;;;14.80;54.30;;;;;;4415024;28;656836;-70
2023/05/01 08:41:00;;;;;;;5.70;2.83;;;15.10;59.60;;;;;;4436737;28;656500;-70
2023/05/01 08:43:48;;;;;;;7.63;2.70;;;15.30;56.40;;;;;;4421314;28;657825;-69
2023/05/01 08:46:38;;;;;;;7.93;3.00;;;15.60;55.40;;;;;;4430322;28;656476;-68
2023/05/01 08:49:25;;;;;;;7.83;2.67;;;15.70;54.80;;;;;;4419827;28;656932;-69
2023/05/01 08:52:15;;;;;;;7.67;2.70;;;15.90;55.00;;;;;;4441448;28;657425;-69
2023/05/01 08:55:02;;;;;;;7.53;3.10;;;16.10;57.30;;;;;;4313671;28;657852;-69
2023/05/01 08:57:49;;;;;;;8.30;2.67;;;16.20;55.20;;;;;;4265390;28;656334;-69
2023/05/01 09:00:37;;;;;;;10.77;3.47;;;16.50;53.40;;;;;;4270196;28;656268;-70
2023/05/01 09:03:24;;;;;;;6.23;2.97;;;16.60;54.30;;;;;;4436950;28;657646;-70
2023/05/01 09:06:12;;;;;;;6.40;2.90;;;16.50;52.20;;;;;;4421687;28;656393;-71
2023/05/01 09:09:01;;;;;;;9.07;2.90;;;16.40;49.80;;;;;;4440085;28;656128;-69
2023/05/01 09:11:48;;;;;;;8.57;2.90;;;16.60;51.90;;;;;;4416205;28;657024;-70
2023/05/01 09:14:35;;;;;;;7.30;2.73;;;16.70;52.50;;;;;;4420893;28;656512;-70
2023/05/01 09:17:23;;;;;;;8.10;3.20;;;16.60;53.30;;;;;;4440155;28;657599;-70
2023/05/01 09:20:11;;;;;;;10.43;3.37;;;17.10;51.30;;;;;;4422996;28;656233;-71
2023/05/01 09:22:58;;;;;;;7.33;3.17;;;17.30;49.60;;;;;;4441097;28;658763;-71
2023/05/01 09:25:47;;;;;;;6.70;3.00;;;17.60;50.70;;;;;;4422087;28;656207;-70
2023/05/01 09:28:41;;;;;;;6.37;2.93;;;17.70;53.40;;;;;;4439138;28;656923;-69
2023/05/01 09:31:31;;;;;;;8.65;2.88;;;18.00;50.50;;;;;;4413687;28;659254;-68
2023/05/01 09:34:19;;;;;;;9.90;3.00;;;18.10;49.10;;;;;;4416390;28;657191;-70
2023/05/01 09:37:07;;;;;;;6.18;2.60;;;17.90;46.90;;;;;;4418075;28;657293;-70
2023/05/01 09:40:05;;;;;;;11.60;3.03;;;18.10;48.70;;;;;;4442792;28;656851;-70
2023/05/01 09:42:54;;;;;;;7.53;2.60;;;17.90;47.50;;;;;;4386281;28;658880;-70
2023/05/01 09:45:42;;;;;;;6.43;2.70;;;18.30;50.30;;;;;;4422363;28;656570;-70
2023/05/01 09:48:30;;;;;;;5.40;2.30;;;18.20;48.40;;;;;;4439254;28;656336;-70
2023/05/01 09:51:21;;;;;;;6.77;2.60;;;18.30;46.70;;;;;;4425077;28;657275;-70
2023/05/01 09:54:18;;;;;;;5.67;2.53;;;18.10;47.10;;;;;;4411667;28;656153;-70
2023/05/01 09:57:05;;;;;;;6.43;2.70;;;18.10;47.50;;;;;;4407294;28;656243;-70
2023/05/01 10:00:07;;;;;;;7.23;2.80;;;18.30;44.30;;;;;;4430096;28;658037;-70
2023/05/01 10:02:54;;;;;;;7.00;2.63;;;18.10;45.80;;;;;;4417579;28;656407;-71
2023/05/01 10:05:45;;;;;;;5.17;3.00;;;18.10;47.20;;;;;;4418542;28;656738;-70
2023/05/01 10:08:48;;;;;;;10.33;2.67;;;18.40;43.40;;;;;;4419832;28;657909;-70
2023/05/01 10:11:48;;;;;;;8.33;2.70;;;18.30;44.20;;;;;;4398174;28;659059;-71
2023/05/01 10:14:49;;;;;;;5.60;2.50;;;18.60;43.50;;;;;;4398754;28;657157;-68
2023/05/01 10:17:38;;;;;;;11.20;2.73;;;18.90;44.40;;;;;;4393256;28;658068;-70
2023/05/01 10:20:25;;;;;;;7.80;2.70;;;18.70;42.70;;;;;;4429655;28;657356;-70
2023/05/01 10:23:12;;;;;;;6.97;2.87;;;18.80;42.70;;;;;;4443936;28;656889;-70
2023/05/01 10:26:01;;;;;;;6.17;2.60;;;19.00;42.30;;;;;;4439760;28;656350;-71
2023/05/01 10:28:48;;;;;;;8.20;3.43;;;19.00;42.80;;;;;;4419293;28;657520;-70
2023/05/01 10:31:36;;;;;;;11.77;3.20;;;19.10;41.50;;;;;;4421785;28;656913;-70
2023/05/01 10:34:24;;;;;;;6.63;2.63;;;19.70;43.40;;;;;;4440644;28;658890;-69
2023/05/01 10:37:14;;;;;;;6.40;2.80;;;19.70;40.90;;;;;;4413284;28;656421;-71
2023/05/01 10:40:01;;;;;;;8.07;2.60;;;20.00;45.10;;;;;;4429318;28;656545;-71
2023/05/01 10:43:14;;;;;;;6.73;2.50;;;19.80;39.70;;;;;;4441967;28;656998;-72
2023/05/01 10:46:26;;;;;;;6.57;2.63;;;19.60;38.50;;;;;;4393792;28;657925;-72
2023/05/01 10:49:14;;;;;;;8.83;2.70;;;19.70;37.50;;;;;;4418696;28;657723;-71
2023/05/01 10:52:03;;;;;;;8.63;2.60;;;20.00;42.10;;;;;;4424721;28;656477;-71
2023/05/01 10:54:50;;;;;;;5.63;2.60;;;20.20;39.00;;;;;;4427986;28;656838;-71
2023/05/01 10:57:44;;;;;;;5.03;2.50;;;20.00;36.30;;;;;;4447773;28;657821;-71
2023/05/01 11:00:33;;;;;;;6.03;2.60;;;20.20;37.80;;;;;;4425815;28;656941;-72
2023/05/01 11:03:41;;;;;;;5.13;2.43;;;20.40;33.70;;;;;;4438380;28;656229;-71
2023/05/01 11:06:28;;;;;;;3.90;2.27;;;20.40;34.80;;;;;;4408377;28;657227;-71
2023/05/01 11:09:38;;;;;;;5.77;2.07;;;20.40;34.80;;;;;;4422123;28;656713;-71
2023/05/01 11:12:48;;;;;;;6.30;2.20;;;20.60;34.40;;;;;;4395707;28;656997;-71
2023/05/01 11:15:35;;;;;;;5.03;1.90;;;21.10;39.70;;;;;;4395379;28;657316;-70
2023/05/01 11:18:23;;;;;;;5.27;2.20;;;21.40;36.30;;;;;;4445095;28;657613;-72
2023/05/01 11:21:10;;;;;;;6.27;2.20;;;21.40;35.20;;;;;;4413589;28;656466;-72
2023/05/01 11:23:57;;;;;;;7.47;2.30;;;21.30;35.30;;;;;;4446677;28;656724;-71
2023/05/01 11:26:46;;;;;;;5.00;2.20;;;21.50;31.60;;;;;;4435980;28;657330;-72
2023/05/01 11:29:33;;;;;;;8.70;2.10;;;21.90;32.00;;;;;;4417929;28;657289;-72
2023/05/01 11:32:25;;;;;;;9.07;2.53;;;21.70;35.10;;;;;;4417626;28;656841;-72
2023/05/01 11:35:17;;;;;;;6.10;2.53;;;21.40;34.00;;;;;;4421101;28;657179;-72
2023/05/01 11:38:04;;;;;;;3.40;1.93;;;21.70;32.40;;;;;;4413829;28;656494;-72
2023/05/01 11:40:54;;;;;;;7.70;2.30;;;21.80;33.10;;;;;;4422415;28;656618;-72
2023/05/01 11:43:51;;;;;;;7.63;2.37;;;22.10;35.10;;;;;;4415842;28;656738;-71
2023/05/01 11:46:39;;;;;;;4.47;2.53;;;22.20;34.00;;;;;;4421629;28;656799;-71
2023/05/01 11:49:27;;;;;;;4.77;2.10;;;22.30;30.80;;;;;;4421371;28;656619;-71
2023/05/01 11:52:14;;;;;;;4.40;2.10;;;22.30;31.70;;;;;;4439687;28;656967;-72
2023/05/01 11:55:02;;;;;;;7.13;2.30;;;22.30;33.50;;;;;;4416538;28;656763;-72
2023/05/01 11:57:50;;;;;;;5.20;1.90;;;22.00;31.10;;;;;;4433131;28;656963;-71
2023/05/01 12:00:40;;;;;;;4.30;2.27;;;22.00;33.30;;;;;;4419185;28;657303;-72
2023/05/01 12:03:28;;;;;;;4.13;2.23;;;21.70;31.40;;;;;;4423699;28;657274;-71
2023/05/01 12:06:16;;;;;;;4.33;1.83;;;21.60;31.40;;;;;;4428932;28;656426;-71
2023/05/01 12:09:03;;;;;;;4.43;1.70;;;22.10;32.00;;;;;;4432105;28;657241;-72
2023/05/01 12:11:51;;;;;;;3.10;1.70;;;22.40;33.50;;;;;;4427009;28;656512;-71
2023/05/01 12:14:39;;;;;;;5.13;1.87;;;22.30;30.20;;;;;;4438619;28;656618;-72
2023/05/01 12:17:28;;;;;;;5.00;1.90;;;22.10;31.10;;;;;;4417030;28;656911;-71
2023/05/01 12:20:16;;;;;;;4.30;1.83;;;22.20;29.00;;;;;;4413823;28;657023;-71
2023/05/01 12:23:04;;;;;;;4.93;1.70;;;22.50;32.00;;;;;;4439315;28;657720;-71
2023/05/01 12:25:51;;;;;;;3.37;1.63;;;22.70;29.30;;;;;;4423259;28;656699;-71
2023/05/01 12:28:38;;;;;;;3.03;1.80;;;22.80;30.30;;;;;;4446902;28;657760;-72
2023/05/01 12:31:25;;;;;;;3.60;1.77;;;22.70;28.00;;;;;;4413533;28;657158;-71
2023/05/01 12:34:14;;;;;;;4.43;1.80;;;23.10;29.10;;;;;;4428083;28;657676;-72
2023/05/01 12:37:01;;;;;;;5.13;2.00;;;23.00;29.40;;;;;;4415157;28;656886;-71
2023/05/01 12:39:49;;;;;;;3.37;1.80;;;22.60;28.30;;;;;;4440914;28;657431;-72
2023/05/01 12:42:36;;;;;;;6.40;1.70;;;22.60;29.70;;;;;;4417945;28;656251;-71
2023/05/01 12:45:23;;;;;;;2.53;1.47;;;22.70;28.50;;;;;;4441144;28;657399;-72
2023/05/01 12:48:13;;;;;;;3.90;1.50;;;22.80;28.30;;;;;;4420387;28;656796;-71
2023/05/01 12:51:02;;;;;;;4.60;1.67;;;22.90;27.40;;;;;;4424900;28;656683;-71
2023/05/01 12:53:50;;;;;;;3.47;1.50;;;22.80;28.10;;;;;;4439986;28;657220;-71
2023/05/01 12:56:37;;;;;;;4.25;2.00;;;23.20;31.10;;;;;;4419090;28;657473;-71
2023/05/01 12:59:25;;;;;;;4.83;1.90;;;23.00;27.50;;;;;;4442702;28;656281;-72
2023/05/01 13:02:14;;;;;;;2.95;1.90;;;23.10;29.60;;;;;;4408807;28;657040;-72
2023/05/01 13:05:08;;;;;;;5.78;1.80;;;23.30;28.90;;;;;;4420921;28;656761;-71
2023/05/01 13:07:57;;;;;;;6.22;2.15;;;23.00;28.80;;;;;;4416059;28;656936;-71
2023/05/01 13:10:45;;;;;;;5.72;2.13;;;23.50;29.80;;;;;;4439117;28;657178;-71
2023/05/01 13:13:34;;;;;;;4.22;1.65;;;23.90;30.00;;;;;;4446228;28;657143;-72
2023/05/01 13:16:23;;;;;;;4.63;1.92;;;24.00;29.00;;;;;;4424498;28;656588;-72
2023/05/01 13:19:10;;;;;;;3.58;1.85;;;23.90;29.70;;;;;;4420331;28;657123;-71
2023/05/01 13:21:58;;;;;;;5.30;1.90;;;23.90;30.00;;;;;;4441750;28;657622;-72
2023/05/01 13:24:47;;;;;;;4.95;2.08;;;23.90;28.70;;;;;;4415382;28;656996;-71
2023/05/01 13:27:34;;;;;;;4.03;2.15;;;23.90;28.10;;;;;;4441655;28;656474;-71
2023/05/01 13:30:31;;;;;;;7.10;2.30;;;24.00;29.90;;;;;;4418712;28;656502;-72
2023/05/01 13:33:18;;;;;;;7.75;2.30;;;23.70;29.50;;;;;;4417118;28;656926;-72
2023/05/01 13:36:06;;;;;;;5.18;2.10;;;23.60;28.90;;;;;;4417426;28;656554;-71
2023/05/01 13:38:54;;;;;;;4.80;2.13;;;23.80;27.60;;;;;;4445063;28;658137;-71
2023/05/01 13:41:43;;;;;;;5.95;2.10;;;23.60;28.00;;;;;;4416073;28;656374;-71
2023/05/01 13:44:30;;;;;;;3.20;1.95;;;23.40;27.60;;;;;;4428504;28;656833;-72
2023/05/01 13:47:18;;;;;;;3.47;1.92;;;23.60;29.70;;;;;;4431349;28;658108;-71
2023/05/01 13:50:08;;;;;;;6.65;1.80;;;24.00;28.60;;;;;;4420769;28;656986;-71
2023/05/01 13:52:55;;;;;;;5.85;2.40;;;24.20;29.60;;;;;;4422082;28;656861;-71
2023/05/01 13:55:43;;;;;;;10.32;2.40;;;24.40;29.60;;;;;;4426656;28;657396;-72
2023/05/01 13:58:32;;;;;;;5.68;1.90;;;24.30;28.90;;;;;;4426662;28;662242;-71
2023/05/01 14:01:22;;;;;;;5.90;2.20;;;24.40;27.80;;;;;;4439981;28;657139;-71
2023/05/01 14:04:10;;;;;;;4.80;2.30;;;24.40;28.70;;;;;;4438554;28;657985;-71
2023/05/01 14:06:58;;;;;;;3.60;2.03;;;24.20;27.70;;;;;;4426557;28;657945;-72
2023/05/01 14:09:46;;;;;;;9.15;2.28;;;24.70;28.00;;;;;;4426365;28;656468;-71
2023/05/01 14:12:34;;;;;;;4.45;2.03;;;24.70;27.60;;;;;;4459163;28;657910;-71
2023/05/01 14:15:23;;;;;;;6.03;2.10;;;24.60;28.20;;;;;;4423844;28;656694;-71
2023/05/01 14:18:16;;;;;;;5.70;2.38;;;24.60;28.90;;;;;;4418852;28;657221;-71
2023/05/01 14:21:03;;;;;;;6.28;2.17;;;25.10;27.60;;;;;;4414517;28;657513;-71
2023/05/01 14:23:51;;;;;;;4.35;2.22;;;24.90;28.60;;;;;;4425547;28;656370;-71
2023/05/01 14:26:39;;;;;;;11.90;2.58;;;24.90;27.60;;;;;;4443951;28;657199;-71
2023/05/01 14:29:27;;;;;;;3.15;2.20;;;24.70;28.00;;;;;;4421057;28;657292;-71
2023/05/01 14:32:16;;;;;;;7.57;2.10;;;24.40;26.90;;;;;;4434735;28;657016;-71